Aviation Digital Data Service (ADDS)

Output produced by METARs form (0039 UTC 23 March 2019)
found at http://www.aviationweather.gov/metar/data/
 
Forecast for: FCPP (POINTE-NOIRE , CG)
Text: TAF FCPP 222300Z 2300/2324 09006KT 6000 -TSRA SCT010 BKN016 SCT026CB
Forecast period: 0000 to 0500 UTC 23 March 2019
Forecast type: FROM: standard forecast or significant change
Winds: from the E (90 degrees) at 7 MPH (6 knots; 3.1 m/s)
Visibility: 4 miles (6 km)
Ceiling: 1600 feet AGL
Clouds: scattered clouds at 1000 feet AGL
broken clouds at 1600 feet AGL
scattered clouds at 2600 feet AGL
Weather: -TSRA  (light rain associated with thunderstorm(s))
Text: TEMPO 2301/2303 4000 TSRA
Forecast period: 0100 to 0300 UTC 23 March 2019
Forecast type: TEMPORARY: The following changes expected for less than half the time period
Visibility: 2.49 miles (4.01 km)
Ceiling: unknown
Clouds: missing
Weather: TSRA  (rain associated with thunderstorm(s))
Text: BECMG 2305/2307 NSW FEW010 BKN020
Forecast period: 0500 UTC 23 March 2019 to 0000 UTC 24 March 2019
Forecast type: BECOMING: Conditions expected to become as follows by 0700 UTC 23 March 2019
Winds: from the E (90 degrees) at 7 MPH (6 knots; 3.1 m/s)
Visibility: 4 miles (6 km)
Ceiling: 2000 feet AGL
Clouds: few clouds at 1000 feet AGL
broken clouds at 2000 feet AGL
Weather: NSW  (no significant weather)